Time;durP1;ratioP1;P1;durP2;ratioP2;P2;SDS_P1;SDS_P2;PMS_P1;PMS_P2;Temp;Humidity;BMP_temperature;BMP_pressure;BME280_temperature;BME280_humidity;BME280_pressure;Samples;Min_cycle;Max_cycle;Signal;HPM_P1;HPM_P2
2024/03/16 00:00:32;;;;;;;0.65;0.60;;;;;;;8.69;100.00;98012.44;6108121;19;20010;-71
2024/03/16 00:02:34;;;;;;;2.30;1.00;;;;;;;8.62;100.00;98006.84;6105370;19;20014;-71
2024/03/16 00:04:34;;;;;;;1.05;0.68;;;;;;;8.60;100.00;98011.13;6108991;19;20029;-71
2024/03/16 00:06:35;;;;;;;0.77;0.70;;;;;;;8.55;100.00;98015.03;6107866;19;20006;-72
2024/03/16 00:08:35;;;;;;;0.95;0.68;;;;;;;8.55;100.00;98019.75;6109168;19;20010;-71
2024/03/16 00:10:35;;;;;;;1.45;1.17;;;;;;;8.54;100.00;98016.19;6107384;19;20014;-71
2024/03/16 00:12:36;;;;;;;0.73;0.60;;;;;;;8.56;100.00;98021.34;6107695;19;20739;-71
2024/03/16 00:14:36;;;;;;;0.73;0.70;;;;;;;8.54;100.00;98020.91;6108682;19;20331;-71
2024/03/16 00:16:36;;;;;;;2.15;0.60;;;;;;;8.54;100.00;98016.19;6108795;19;20346;-71
2024/03/16 00:18:36;;;;;;;0.73;0.60;;;;;;;8.53;100.00;98019.34;6108560;19;20019;-71
2024/03/16 00:20:40;;;;;;;0.50;0.50;;;;;;;8.55;100.00;98017.00;6108854;19;20014;-71
2024/03/16 00:22:40;;;;;;;0.63;0.52;;;;;;;8.53;100.00;98022.88;6106928;19;20030;-71
2024/03/16 00:24:41;;;;;;;0.50;0.50;;;;;;;8.58;100.00;98017.03;6109069;19;20014;-71
2024/03/16 00:26:41;;;;;;;2.50;1.67;;;;;;;8.63;100.00;98024.97;6108201;19;20029;-71
2024/03/16 00:28:41;;;;;;;1.27;0.60;;;;;;;8.65;100.00;98021.84;6108282;19;20006;-71
2024/03/16 00:30:43;;;;;;;0.82;0.50;;;;;;;8.72;100.00;98024.69;6107454;19;20014;-71
2024/03/16 00:32:43;;;;;;;0.50;0.50;;;;;;;8.78;100.00;98020.41;6106788;19;20011;-71
2024/03/16 00:34:44;;;;;;;1.95;0.50;;;;;;;8.79;100.00;98018.47;6108013;19;20017;-71
2024/03/16 00:36:44;;;;;;;0.50;0.50;;;;;;;8.78;100.00;98023.19;6108361;19;20094;-71
2024/03/16 00:38:49;;;;;;;0.50;0.50;;;;;;;8.78;100.00;98030.66;6107708;19;20012;-71
2024/03/16 00:40:50;;;;;;;0.50;0.50;;;;;;;8.80;100.00;98029.09;6108740;19;20310;-71
2024/03/16 00:42:50;;;;;;;0.68;0.50;;;;;;;8.80;100.00;98037.38;6106538;19;20010;-71
2024/03/16 00:44:51;;;;;;;0.60;0.60;;;;;;;8.80;100.00;98034.63;6107206;19;20007;-71
2024/03/16 00:46:51;;;;;;;0.68;0.50;;;;;;;8.80;100.00;98026.34;6107240;19;20014;-71
2024/03/16 00:48:51;;;;;;;0.98;0.50;;;;;;;8.84;100.00;98032.69;6107647;19;20014;-72
2024/03/16 00:50:52;;;;;;;2.97;0.80;;;;;;;8.80;100.00;98034.63;6107073;19;20099;-71
2024/03/16 00:52:52;;;;;;;0.88;0.60;;;;;;;8.79;100.00;98029.50;6106199;19;20015;-71
2024/03/16 00:54:52;;;;;;;0.57;0.50;;;;;;;8.77;100.00;98029.88;6108590;19;20512;-71
2024/03/16 00:56:53;;;;;;;0.50;0.50;;;;;;;8.81;100.00;98024.38;6107441;19;20119;-71
2024/03/16 00:58:53;;;;;;;0.98;0.57;;;;;;;8.83;100.00;98027.56;6107800;19;20345;-71
2024/03/16 01:00:53;;;;;;;0.43;0.40;;;;;;;8.82;100.00;98014.94;6107236;19;20331;-71
2024/03/16 01:02:54;;;;;;;0.50;0.50;;;;;;;8.83;100.00;98014.53;6105186;19;20011;-71
2024/03/16 01:04:56;;;;;;;0.65;0.50;;;;;;;8.80;100.00;98020.84;6107484;19;20010;-71
2024/03/16 01:06:56;;;;;;;0.95;0.60;;;;;;;8.76;100.00;98017.22;6107559;19;20014;-71
2024/03/16 01:08:57;;;;;;;0.50;0.40;;;;;;;8.72;100.00;98013.66;6107723;19;20006;-71
2024/03/16 01:10:58;;;;;;;0.70;0.60;;;;;;;8.66;100.00;98015.94;6106365;19;20007;-71
2024/03/16 01:12:58;;;;;;;0.40;0.40;;;;;;;8.67;100.00;98013.97;6105614;19;20014;-71
2024/03/16 01:14:58;;;;;;;0.50;0.50;;;;;;;8.68;100.00;98019.09;6110722;19;20330;-71
2024/03/16 01:16:58;;;;;;;0.50;0.50;;;;;;;8.63;100.00;98019.47;6112454;19;20415;-71
2024/03/16 01:18:59;;;;;;;0.60;0.60;;;;;;;8.65;100.00;98010.81;6112182;19;20011;-71
2024/03/16 01:21:01;;;;;;;0.50;0.50;;;;;;;8.56;100.00;98016.63;6112510;19;20019;-71
2024/03/16 01:23:04;;;;;;;0.45;0.45;;;;;;;8.51;100.00;98016.94;6112993;19;20384;-71
2024/03/16 01:25:05;;;;;;;1.02;0.60;;;;;;;8.43;100.00;98010.53;6113375;19;20011;-71
2024/03/16 01:27:05;;;;;;;0.50;0.50;;;;;;;8.38;100.00;98021.13;6112624;19;20337;-71
2024/03/16 01:29:10;;;;;;;0.40;0.40;;;;;;;8.36;100.00;98015.19;6113515;19;20395;-71
2024/03/16 01:31:11;;;;;;;0.73;0.63;;;;;;;8.29;100.00;98007.59;6112754;19;20107;-71
2024/03/16 01:33:11;;;;;;;0.50;0.50;;;;;;;8.22;100.00;98014.97;6111602;19;20363;-71
2024/03/16 01:35:12;;;;;;;0.40;0.40;;;;;;;8.18;100.00;98017.66;6113228;19;20023;-71
2024/03/16 01:37:13;;;;;;;1.48;0.47;;;;;;;8.12;100.00;98016.41;6113559;19;20436;-71
2024/03/16 01:39:15;;;;;;;0.52;0.50;;;;;;;8.06;100.00;98012.38;6113624;19;20015;-71
2024/03/16 01:41:15;;;;;;;0.40;0.40;;;;;;;7.99;100.00;98013.06;6111759;19;20044;-71
2024/03/16 01:43:16;;;;;;;1.02;0.50;;;;;;;8.01;100.00;98016.25;6110416;19;20007;-71
2024/03/16 01:45:17;;;;;;;0.70;0.50;;;;;;;8.00;100.00;98008.34;6112029;19;20466;-71
2024/03/16 01:47:17;;;;;;;2.15;0.50;;;;;;;8.02;100.00;98009.56;6111620;19;20006;-71
2024/03/16 01:49:18;;;;;;;0.50;0.50;;;;;;;8.03;100.00;98015.91;6111436;19;20013;-71
2024/03/16 01:51:18;;;;;;;0.73;0.70;;;;;;;8.07;100.00;98017.53;6111219;19;20446;-71
2024/03/16 01:53:18;;;;;;;0.82;0.60;;;;;;;8.09;100.00;98006.91;6110432;19;20069;-71
2024/03/16 01:55:19;;;;;;;0.60;0.60;;;;;;;8.09;100.00;98004.16;6112296;19;20010;-71
2024/03/16 01:57:19;;;;;;;0.50;0.50;;;;;;;8.00;100.00;98020.16;6112000;19;20111;-71
2024/03/16 01:59:20;;;;;;;0.73;0.60;;;;;;;8.01;100.00;98013.50;6111845;19;20331;-71
2024/03/16 02:01:21;;;;;;;0.60;0.50;;;;;;;8.02;100.00;98008.78;6110306;19;20019;-71
2024/03/16 02:03:21;;;;;;;0.70;0.70;;;;;;;8.00;100.00;98011.13;6110439;19;20010;-71
2024/03/16 02:05:22;;;;;;;0.50;0.50;;;;;;;7.96;100.00;98013.84;6111239;19;20007;-71
2024/03/16 02:07:22;;;;;;;2.45;0.60;;;;;;;7.94;100.00;98007.88;6111975;19;20062;-71
2024/03/16 02:09:23;;;;;;;0.50;0.50;;;;;;;7.91;100.00;98014.13;6111579;19;20002;-71
2024/03/16 02:11:23;;;;;;;0.60;0.60;;;;;;;7.91;100.00;98008.63;6110543;19;20316;-71
2024/03/16 02:13:23;;;;;;;0.73;0.70;;;;;;;7.88;100.00;98006.63;6100792;19;20006;-71
2024/03/16 02:15:24;;;;;;;1.17;0.60;;;;;;;7.87;100.00;98002.28;6110645;19;20006;-71
2024/03/16 02:17:24;;;;;;;0.50;0.50;;;;;;;7.84;100.00;98008.53;6110558;19;20039;-71
2024/03/16 02:19:25;;;;;;;2.00;0.70;;;;;;;7.81;100.00;98020.28;6111808;19;20602;-71
2024/03/16 02:21:25;;;;;;;1.23;0.88;;;;;;;7.74;100.00;98012.72;6108892;19;20006;-71
2024/03/16 02:23:26;;;;;;;2.25;0.70;;;;;;;7.69;100.00;98014.97;6108638;19;20014;-71
2024/03/16 02:25:26;;;;;;;1.23;0.60;;;;;;;7.67;100.00;98011.81;6109656;19;20221;-71
2024/03/16 02:27:26;;;;;;;0.82;0.52;;;;;;;7.68;100.00;98010.63;6109661;19;20010;-71
2024/03/16 02:29:27;;;;;;;1.48;0.70;;;;;;;7.72;100.00;98020.56;6109028;19;19994;-71
2024/03/16 02:31:28;;;;;;;0.50;0.50;;;;;;;7.79;100.00;98015.16;6107942;19;20011;-71
2024/03/16 02:33:28;;;;;;;0.75;0.70;;;;;;;7.90;100.00;98012.56;6107914;19;20463;-71
2024/03/16 02:35:29;;;;;;;1.17;0.60;;;;;;;7.97;100.00;98009.13;6110117;19;20009;-71
2024/03/16 02:37:29;;;;;;;0.57;0.57;;;;;;;8.03;100.00;98008.44;6109834;19;20027;-71
2024/03/16 02:39:33;;;;;;;1.50;0.50;;;;;;;8.09;100.00;98014.38;6109487;19;20011;-71
2024/03/16 02:41:33;;;;;;;2.05;0.60;;;;;;;8.18;100.00;98007.44;6109433;19;19998;-71
2024/03/16 02:43:34;;;;;;;0.73;0.60;;;;;;;8.27;100.00;98015.41;6107295;19;20007;-71
2024/03/16 02:45:34;;;;;;;0.82;0.70;;;;;;;8.33;100.00;98013.13;6109256;19;20041;-71
2024/03/16 02:47:34;;;;;;;0.75;0.70;;;;;;;8.35;100.00;98008.84;6110373;19;20002;-71
2024/03/16 02:49:34;;;;;;;0.70;0.70;;;;;;;8.35;100.00;98006.09;6108331;19;20078;-71
2024/03/16 02:51:35;;;;;;;0.63;0.63;;;;;;;8.47;100.00;98009.81;6109186;19;20062;-71
2024/03/16 02:53:35;;;;;;;1.25;0.90;;;;;;;8.51;100.00;98011.41;6108072;19;20082;-71
2024/03/16 02:55:35;;;;;;;1.80;0.90;;;;;;;8.56;100.00;98007.53;6108830;19;20531;-71
2024/03/16 02:57:36;;;;;;;1.98;0.90;;;;;;;8.58;100.00;98003.22;6108632;19;20009;-71
2024/03/16 02:59:36;;;;;;;1.30;1.00;;;;;;;8.63;100.00;98000.16;6108523;19;20018;-71
2024/03/16 03:01:37;;;;;;;0.98;0.88;;;;;;;8.60;100.00;98000.88;6107706;19;20006;-71
2024/03/16 03:03:38;;;;;;;0.98;0.82;;;;;;;8.62;100.00;98009.59;6107125;19;20478;-71
2024/03/16 03:05:39;;;;;;;2.47;1.00;;;;;;;8.63;100.00;98013.94;6109370;19;20002;-71
2024/03/16 03:07:39;;;;;;;1.95;0.90;;;;;;;8.63;100.00;98015.91;6108620;19;20459;-71
2024/03/16 03:09:40;;;;;;;1.33;1.10;;;;;;;8.64;100.00;98009.22;6108887;19;20008;-71
2024/03/16 03:11:40;;;;;;;3.20;1.02;;;;;;;8.66;100.00;98015.16;6108637;19;20010;-71
2024/03/16 03:13:41;;;;;;;1.50;1.10;;;;;;;8.64;100.00;98020.25;6104248;19;20006;-71
2024/03/16 03:15:41;;;;;;;2.40;1.52;;;;;;;8.63;100.00;98016.69;6101474;19;20006;-71
2024/03/16 03:17:42;;;;;;;1.70;1.08;;;;;;;8.63;100.00;98024.19;6100380;19;20481;-71
2024/03/16 03:19:43;;;;;;;1.48;1.10;;;;;;;8.60;100.00;98020.19;6101712;19;20078;-71
2024/03/16 03:21:43;;;;;;;1.60;1.00;;;;;;;8.67;100.00;98012.00;6101968;19;19999;-71
2024/03/16 03:23:43;;;;;;;1.30;0.90;;;;;;;8.69;100.00;98017.16;6099898;19;20326;-71
2024/03/16 03:25:47;;;;;;;2.83;1.17;;;;;;;8.70;100.00;98011.28;6101534;19;20006;-71
2024/03/16 03:27:47;;;;;;;2.00;0.98;;;;;;;8.73;100.00;98018.00;6101322;19;20402;-71
2024/03/16 03:29:48;;;;;;;1.10;0.90;;;;;;;8.75;100.00;98018.41;6100366;19;20315;-71
2024/03/16 03:31:48;;;;;;;1.00;0.90;;;;;;;8.73;100.00;98018.00;6100719;19;20010;-71
2024/03/16 03:33:49;;;;;;;2.45;0.77;;;;;;;8.72;100.00;98024.69;6100354;19;20010;-71
2024/03/16 03:35:49;;;;;;;1.10;0.90;;;;;;;8.72;100.00;98019.16;6100660;19;20018;-71
2024/03/16 03:37:50;;;;;;;1.70;0.90;;;;;;;8.72;100.00;98024.69;6099366;19;20007;-71
2024/03/16 03:39:52;;;;;;;1.98;0.95;;;;;;;8.77;100.00;98029.88;6098204;19;20387;-71
2024/03/16 03:41:52;;;;;;;1.58;1.13;;;;;;;8.82;100.00;98025.97;6099560;19;20010;-71
2024/03/16 03:44:02;;;;;;;1.52;1.00;;;;;;;8.86;100.00;98016.56;6098932;19;20003;-71
2024/03/16 03:46:04;;;;;;;2.00;0.93;;;;;;;8.89;100.00;98017.78;6099959;19;20647;-71
2024/03/16 03:50:28;;;;;;;1.55;1.25;;;;;;;8.92;100.00;98015.03;6100303;19;20003;-71
2024/03/16 03:52:28;;;;;;;1.80;1.35;;;;;;;8.94;100.00;98018.22;6098716;19;20361;-71
2024/03/16 03:54:30;;;;;;;1.58;1.17;;;;;;;8.91;100.00;98015.41;6100840;19;20002;-71
2024/03/16 03:56:30;;;;;;;1.55;1.30;;;;;;;8.94;100.00;98007.19;6100356;19;20392;-71
2024/03/16 03:58:30;;;;;;;2.05;1.17;;;;;;;8.95;100.00;98010.75;6099927;19;20330;-71
2024/03/16 04:00:32;;;;;;;1.75;1.02;;;;;;;8.96;100.00;98028.88;6099867;19;20002;-71
2024/03/16 04:02:33;;;;;;;3.17;1.33;;;;;;;9.02;100.00;98021.88;6098122;19;20436;-71
2024/03/16 04:04:33;;;;;;;3.00;1.60;;;;;;;9.04;100.00;98018.72;6100354;19;19999;-71
2024/03/16 04:06:33;;;;;;;2.60;1.17;;;;;;;9.01;100.00;98017.50;6100163;19;20472;-71
2024/03/16 04:08:34;;;;;;;2.15;1.45;;;;;;;9.03;100.00;98014.38;6099953;19;20328;-71
2024/03/16 04:10:36;;;;;;;1.90;1.27;;;;;;;8.98;100.00;98013.53;6098913;19;20030;-71
2024/03/16 04:12:36;;;;;;;1.60;1.25;;;;;;;8.95;100.00;98008.78;6096178;19;20036;-71
2024/03/16 04:14:37;;;;;;;2.95;1.30;;;;;;;8.99;100.00;98012.34;6103996;19;20002;-71
2024/03/16 04:16:37;;;;;;;2.88;1.38;;;;;;;9.03;100.00;98020.69;6106642;19;20456;-71
2024/03/16 04:18:37;;;;;;;3.72;1.42;;;;;;;9.03;100.00;98025.41;6105890;19;20014;-71
2024/03/16 04:20:38;;;;;;;2.92;1.42;;;;;;;9.00;100.00;98015.91;6106368;19;20003;-71
2024/03/16 04:22:39;;;;;;;2.83;1.50;;;;;;;9.01;100.00;98026.56;6104510;19;20007;-71
2024/03/16 04:24:39;;;;;;;1.98;1.40;;;;;;;9.01;100.00;98029.31;6106101;19;20356;-71
2024/03/16 04:26:40;;;;;;;1.70;1.17;;;;;;;9.03;100.00;98028.16;6105435;19;20010;-71
2024/03/16 04:28:40;;;;;;;2.83;1.33;;;;;;;9.01;100.00;98034.03;6107067;19;20332;-71
2024/03/16 04:30:40;;;;;;;2.13;1.50;;;;;;;9.04;100.00;98032.53;6105416;19;20020;-71
2024/03/16 04:32:40;;;;;;;2.10;1.58;;;;;;;9.06;100.00;98041.19;6104656;19;20350;-71
2024/03/16 04:34:41;;;;;;;2.13;1.50;;;;;;;9.01;100.00;98034.03;6106250;19;20223;-71
2024/03/16 04:36:41;;;;;;;2.58;1.50;;;;;;;9.01;100.00;98034.03;6106670;19;20102;-71
2024/03/16 04:38:41;;;;;;;4.28;1.60;;;;;;;8.99;100.00;98036.41;6105478;19;20006;-71
2024/03/16 04:40:42;;;;;;;3.20;1.90;;;;;;;8.99;100.00;98036.41;6106003;19;20013;-71
2024/03/16 04:42:43;;;;;;;2.88;1.77;;;;;;;8.95;100.00;98041.09;6104275;19;20431;-71
2024/03/16 04:44:43;;;;;;;3.72;1.92;;;;;;;8.87;100.00;98040.22;6106019;19;20006;-71
2024/03/16 04:46:44;;;;;;;2.90;2.30;;;;;;;8.85;100.00;98039.00;6105751;19;20011;-71
2024/03/16 04:48:44;;;;;;;2.60;1.73;;;;;;;8.82;100.00;98043.31;6107556;19;20006;-71
2024/03/16 04:50:44;;;;;;;3.47;2.00;;;;;;;8.83;100.00;98035.81;6111610;19;20041;-71
2024/03/16 04:52:45;;;;;;;3.05;2.15;;;;;;;8.81;100.00;98041.72;6110031;19;20010;-71
2024/03/16 04:54:45;;;;;;;6.05;2.53;;;;;;;8.80;100.00;98029.09;6110875;19;20007;-71
2024/03/16 04:56:45;;;;;;;3.47;2.50;;;;;;;8.78;100.00;98031.44;6111309;19;20702;-71
2024/03/16 04:58:45;;;;;;;3.55;2.03;;;;;;;8.80;100.00;98033.84;6110718;19;20007;-71
2024/03/16 05:00:46;;;;;;;2.90;2.00;;;;;;;8.82;100.00;98039.75;6111118;19;20594;-71
2024/03/16 05:02:48;;;;;;;2.83;1.90;;;;;;;8.77;100.00;98035.38;6109565;19;20345;-71
2024/03/16 05:04:48;;;;;;;3.45;1.98;;;;;;;8.78;100.00;98042.50;6110655;19;20011;-71
2024/03/16 05:06:49;;;;;;;6.28;2.35;;;;;;;8.79;100.00;98037.75;6112021;19;20007;-71
2024/03/16 05:08:49;;;;;;;3.63;2.42;;;;;;;8.78;100.00;98031.44;6110996;19;20017;-71
2024/03/16 05:10:51;;;;;;;3.42;2.08;;;;;;;8.77;100.00;98024.34;6110569;19;20353;-71
2024/03/16 05:12:52;;;;;;;3.05;1.98;;;;;;;8.75;100.00;98032.19;6109957;19;20073;-71
2024/03/16 05:14:52;;;;;;;2.60;2.08;;;;;;;8.75;100.00;98042.44;6111941;19;20019;-71
2024/03/16 05:16:52;;;;;;;2.80;1.83;;;;;;;8.75;100.00;98043.22;6110861;19;20439;-71
2024/03/16 05:18:53;;;;;;;4.07;2.22;;;;;;;8.72;100.00;98047.53;6110986;19;20030;-71
2024/03/16 05:20:53;;;;;;;7.82;3.70;;;;;;;8.73;100.00;98048.31;6111342;19;20014;-71
2024/03/16 05:22:53;;;;;;;4.93;2.13;;;;;;;8.72;100.00;98043.97;6109430;19;20038;-71
2024/03/16 05:24:53;;;;;;;4.22;2.38;;;;;;;8.75;100.00;98053.47;6110679;19;20018;-71
2024/03/16 05:26:54;;;;;;;3.10;1.90;;;;;;;8.70;100.00;98055.41;6111026;19;20011;-71
2024/03/16 05:28:55;;;;;;;4.10;2.53;;;;;;;8.73;100.00;98062.13;6110734;19;20014;-71
2024/03/16 05:30:55;;;;;;;4.93;2.40;;;;;;;8.71;100.00;98051.47;6111001;19;20017;-71
2024/03/16 05:32:55;;;;;;;3.25;2.35;;;;;;;8.72;100.00;98055.03;6108244;19;20396;-71
2024/03/16 05:34:56;;;;;;;2.67;1.98;;;;;;;8.69;100.00;98059.34;6111292;19;20010;-71
2024/03/16 05:36:57;;;;;;;5.18;2.13;;;;;;;8.67;100.00;98060.84;6110337;19;20020;-71
2024/03/16 05:38:58;;;;;;;3.90;2.28;;;;;;;8.65;100.00;98060.44;6109696;19;20014;-71
2024/03/16 05:40:58;;;;;;;2.38;1.90;;;;;;;8.61;100.00;98056.84;6110122;19;20010;-71
2024/03/16 05:42:59;;;;;;;3.20;2.00;;;;;;;8.57;100.00;98059.56;6108465;19;20006;-71
2024/03/16 05:44:59;;;;;;;2.80;1.88;;;;;;;8.59;100.00;98059.19;6108637;19;20015;-71
2024/03/16 05:46:59;;;;;;;3.00;2.00;;;;;;;8.56;100.00;98069.00;6110462;19;20002;-71
2024/03/16 05:49:00;;;;;;;4.53;2.10;;;;;;;8.56;100.00;98070.97;6109938;19;20044;-71
2024/03/16 05:51:01;;;;;;;3.65;2.30;;;;;;;8.59;100.00;98071.00;6110631;19;20015;-71
2024/03/16 05:53:02;;;;;;;3.03;2.30;;;;;;;8.59;100.00;98073.75;6107845;19;20078;-71
2024/03/16 05:55:02;;;;;;;5.35;2.35;;;;;;;8.64;100.00;98070.69;6110672;19;20018;-71
2024/03/16 05:57:03;;;;;;;3.90;2.20;;;;;;;8.63;100.00;98074.63;6110577;19;20014;-71
2024/03/16 05:59:04;;;;;;;4.95;2.22;;;;;;;8.62;100.00;98080.50;6110765;19;20370;-71
2024/03/16 06:01:04;;;;;;;3.17;2.45;;;;;;;8.60;100.00;98077.31;6109279;19;20078;-71
2024/03/16 06:03:05;;;;;;;4.65;2.65;;;;;;;8.56;100.00;98073.72;6109932;19;20070;-72
2024/03/16 06:05:06;;;;;;;4.97;2.78;;;;;;;8.58;100.00;98074.13;6108844;19;20003;-71
2024/03/16 06:07:06;;;;;;;3.50;2.60;;;;;;;8.57;100.00;98078.84;6110587;19;20669;-71
2024/03/16 06:09:06;;;;;;;5.25;2.95;;;;;;;8.55;100.00;98083.16;6110735;19;20328;-71
2024/03/16 06:11:08;;;;;;;3.70;2.42;;;;;;;8.59;100.00;98092.25;6110881;19;20012;-71
2024/03/16 06:13:10;;;;;;;7.40;3.90;;;;;;;8.59;100.00;98089.50;6108722;19;20006;-71
2024/03/16 06:15:10;;;;;;;3.95;2.60;;;;;;;8.61;100.00;98090.75;6110466;19;20002;-71
2024/03/16 06:17:11;;;;;;;3.33;2.58;;;;;;;8.64;100.00;98095.50;6111194;19;20002;-71
2024/03/16 06:19:14;;;;;;;7.57;2.53;;;;;;;8.64;100.00;98092.75;6110236;19;20023;-71
2024/03/16 06:21:14;;;;;;;4.70;3.35;;;;;;;8.77;100.00;98092.50;6109751;19;20455;-71
2024/03/16 06:23:14;;;;;;;5.60;3.38;;;;;;;8.80;100.00;98102.78;6109020;19;20295;-71
2024/03/16 06:25:16;;;;;;;4.28;2.50;;;;;;;8.82;100.00;98092.16;6109284;19;20013;-71
2024/03/16 06:27:21;;;;;;;4.83;2.50;;;;;;;8.82;100.00;98098.47;6110076;19;20052;-71
2024/03/16 06:29:25;;;;;;;4.85;2.50;;;;;;;8.84;100.00;98101.66;6110348;19;20259;-71
2024/03/16 06:31:32;;;;;;;5.30;2.47;;;;;;;8.86;100.00;98102.09;6110907;19;20517;-71
2024/03/16 06:33:32;;;;;;;7.55;2.95;;;;;;;8.87;100.00;98106.44;6108245;19;20010;-71
2024/03/16 06:35:33;;;;;;;3.22;2.42;;;;;;;8.97;100.00;98111.28;6109693;19;20003;-71
2024/03/16 06:37:36;;;;;;;3.72;2.75;;;;;;;8.99;100.00;98106.16;6109834;19;20490;-71
2024/03/16 06:39:37;;;;;;;5.53;2.72;;;;;;;8.96;100.00;98117.19;6109972;19;20006;-71
2024/03/16 06:41:37;;;;;;;3.88;2.47;;;;;;;9.04;100.00;98115.31;6109679;19;20013;-71
2024/03/16 06:43:38;;;;;;;5.63;3.10;;;;;;;9.01;100.00;98117.63;6109518;19;20463;-71
2024/03/16 06:45:38;;;;;;;4.75;3.13;;;;;;;9.01;100.00;98116.81;6109290;19;20003;-71
2024/03/16 06:47:38;;;;;;;4.20;2.58;;;;;;;9.03;100.00;98124.75;6109818;19;20011;-71
2024/03/16 06:49:39;;;;;;;5.03;3.05;;;;;;;9.07;100.00;98129.13;6109967;19;20492;-71
2024/03/16 06:51:39;;;;;;;6.30;2.63;;;;;;;9.08;100.00;98127.16;6108573;19;19999;-71
2024/03/16 06:53:39;;;;;;;7.38;2.90;;;;;;;9.10;100.00;98122.88;6107974;19;19995;-72
2024/03/16 06:55:40;;;;;;;4.65;2.70;;;;;;;9.17;100.00;98125.69;6110118;19;20020;-71
2024/03/16 06:57:41;;;;;;;5.05;2.72;;;;;;;9.21;100.00;98131.28;6110078;19;20009;-71
2024/03/16 06:59:41;;;;;;;4.75;3.72;;;;;;;9.20;100.00;98130.47;6110382;19;20002;-71
2024/03/16 07:01:41;;;;;;;5.75;3.60;;;;;;;9.27;100.00;98138.84;6107692;19;20011;-71
2024/03/16 07:03:42;;;;;;;5.53;3.78;;;;;;;9.33;100.00;98144.00;6108622;19;20043;-71
2024/03/16 07:05:58;;;;;;;6.32;3.80;;;;;;;9.35;100.00;98138.88;5693196;19;22134;-72
2024/03/16 07:08:33;;;;;;;4.82;3.60;;;;;;;9.36;100.00;98154.31;5609277;19;20575;-72
2024/03/16 07:10:56;;;;;;;3.60;2.60;;;;;;;9.43;100.00;98152.44;5484959;19;2006193;-72
2024/03/16 07:12:59;;;;;;;3.38;2.47;;;;;;;9.46;100.00;98154.41;6040804;19;20465;-71
2024/03/16 07:15:00;;;;;;;4.40;2.65;;;;;;;9.50;100.00;98149.72;6110572;19;20010;-71
2024/03/16 07:17:00;;;;;;;5.13;3.28;;;;;;;9.54;100.00;98158.06;6109088;19;20005;-71
2024/03/16 07:19:00;;;;;;;4.63;2.50;;;;;;;9.63;100.00;98160.50;6111230;19;20054;-71
2024/03/16 07:21:01;;;;;;;7.78;4.22;;;;;;;9.66;100.00;98165.25;6110216;19;20066;-71
2024/03/16 07:23:02;;;;;;;5.00;2.85;;;;;;;9.69;100.00;98179.13;6109359;19;20066;-71
2024/03/16 07:25:03;;;;;;;4.00;2.80;;;;;;;9.79;100.00;98169.34;6111133;19;20007;-71
2024/03/16 07:27:05;;;;;;;3.85;2.33;;;;;;;9.87;100.00;98172.97;6109666;19;20010;-71
2024/03/16 07:29:05;;;;;;;7.97;2.40;;;;;;;9.90;100.00;98186.81;6108606;19;20007;-71
2024/03/16 07:31:06;;;;;;;8.18;2.45;;;;;;;9.95;100.00;98185.69;6110582;19;20455;-71
2024/03/16 07:33:07;;;;;;;7.57;3.17;;;;;;;9.98;100.00;98180.19;6108755;19;20337;-71
2024/03/16 07:35:07;;;;;;;6.95;2.75;;;;;;;10.00;100.00;98188.09;6110631;19;20515;-71
2024/03/16 07:37:08;;;;;;;4.88;2.88;;;;;;;10.03;100.00;98196.41;6110045;19;20369;-71
2024/03/16 07:39:08;;;;;;;6.70;4.68;;;;;;;10.03;100.00;98188.13;6109869;19;20031;-71
2024/03/16 07:41:09;;;;;;;5.55;4.43;;;;;;;10.02;100.00;98196.81;6110155;19;20395;-71
2024/03/16 07:43:13;;;;;;;4.68;2.80;;;;;;;10.05;100.00;98199.59;6107457;19;20020;-71
2024/03/16 07:45:14;;;;;;;8.52;4.25;;;;;;;10.04;100.00;98195.25;6108827;19;20666;-71
2024/03/16 07:47:15;;;;;;;7.18;2.65;;;;;;;10.04;100.00;98197.22;6109626;19;20499;-71
2024/03/16 07:49:15;;;;;;;5.70;2.38;;;;;;;10.07;100.00;98205.53;6109250;19;20006;-71
2024/03/16 07:51:16;;;;;;;5.22;2.80;;;;;;;10.06;100.00;98200.38;6109967;19;20006;-71
2024/03/16 07:53:17;;;;;;;5.40;2.72;;;;;;;10.17;100.00;98203.25;6108670;19;20002;-71
2024/03/16 07:55:17;;;;;;;3.55;2.28;;;;;;;10.16;100.00;98201.66;6110956;19;20062;-71
2024/03/16 07:57:17;;;;;;;4.07;2.80;;;;;;;10.21;100.00;98195.78;6110217;19;20684;-71
2024/03/16 07:59:19;;;;;;;4.72;2.28;;;;;;;10.26;100.00;98196.25;6108796;19;20067;-71
2024/03/16 08:01:20;;;;;;;3.13;2.03;;;;;;;10.28;100.00;98202.19;6106849;19;20418;-71
2024/03/16 08:03:20;;;;;;;3.70;2.20;;;;;;;10.32;100.00;98213.28;6108047;19;20263;-71
2024/03/16 08:05:20;;;;;;;3.95;2.00;;;;;;;10.39;100.00;98216.09;6110291;19;20010;-71
2024/03/16 08:07:21;;;;;;;5.43;2.30;;;;;;;10.41;100.00;98213.75;6109898;19;20011;-71
2024/03/16 08:09:23;;;;;;;4.45;2.20;;;;;;;10.40;100.00;98215.72;6109882;19;20019;-71
2024/03/16 08:11:23;;;;;;;3.63;2.17;;;;;;;10.45;100.00;98219.31;6109691;19;20367;-71
2024/03/16 08:13:24;;;;;;;4.32;2.20;;;;;;;10.44;100.00;98224.06;6105970;19;20007;-71
2024/03/16 08:15:24;;;;;;;4.47;1.90;;;;;;;10.45;100.00;98220.09;6102201;19;20785;-71
2024/03/16 08:17:24;;;;;;;5.35;2.75;;;;;;;10.48;100.00;98224.88;6103066;19;20010;-71
2024/03/16 08:19:25;;;;;;;5.70;3.45;;;;;;;10.46;100.00;98232.75;6100428;19;20178;-71
2024/03/16 08:21:25;;;;;;;3.15;2.22;;;;;;;10.48;100.00;98235.13;6102288;19;20371;-71
2024/03/16 08:23:27;;;;;;;3.45;1.90;;;;;;;10.51;100.00;98231.59;6099005;19;20085;-71
2024/03/16 08:25:31;;;;;;;4.15;1.90;;;;;;;10.50;100.00;98236.31;6101876;19;20089;-71
2024/03/16 08:27:31;;;;;;;6.38;3.63;;;;;;;10.51;100.00;98239.88;6102306;19;20006;-71
2024/03/16 08:29:32;;;;;;;3.53;2.50;;;;;;;10.58;100.00;98242.72;6102262;19;20336;-71
2024/03/16 08:31:33;;;;;;;2.90;2.00;;;;;;;10.64;100.00;98239.22;6102213;19;20011;-71
2024/03/16 08:33:33;;;;;;;4.93;2.40;;;;;;;10.65;100.00;98240.00;6099595;19;20007;-71
2024/03/16 08:35:35;;;;;;;5.45;3.30;;;;;;;10.70;100.00;98239.66;6102269;19;20021;-71
2024/03/16 08:37:35;;;;;;;5.93;3.38;;;;;;;10.73;100.00;98249.16;6102024;19;20574;-71
2024/03/16 18:48:07;;;;;;;1.83;1.60;;;;;;;5.90;100.00;99037.84;6103840;19;20018;-70
2024/03/16 18:50:09;;;;;;;4.20;1.95;;;;;;;5.85;100.00;99022.34;6103867;19;20006;-70
2024/03/16 18:52:10;;;;;;;4.38;2.00;;;;;;;5.81;100.00;99037.09;6110442;19;20007;-70
2024/03/16 18:54:11;;;;;;;2.85;1.88;;;;;;;5.75;100.00;99030.19;6110583;19;20053;-71
2024/03/16 18:56:12;;;;;;;6.15;1.98;;;;;;;5.69;100.00;99031.50;6104576;19;20011;-71
2024/03/16 18:58:12;;;;;;;9.07;2.50;;;;;;;5.60;100.00;99024.13;6104985;19;20026;-70
2024/03/16 19:00:22;;;;;;;5.40;3.20;;;;;;;5.56;100.00;99028.69;6101117;19;20003;-71
2024/03/16 19:02:22;;;;;;;4.90;2.92;;;;;;;5.51;100.00;99025.31;6109622;19;20025;-71
2024/03/16 19:04:22;;;;;;;8.57;4.30;;;;;;;5.59;100.00;99027.19;6108777;19;20412;-71
2024/03/16 19:06:22;;;;;;;17.85;6.35;;;;;;;5.47;100.00;99033.41;6104454;19;20013;-70
2024/03/16 19:08:23;;;;;;;6.82;3.15;;;;;;;5.43;100.00;99031.66;6099514;19;20023;-70
2024/03/16 19:10:24;;;;;;;6.28;3.15;;;;;;;5.35;100.00;99025.88;6089460;19;20349;-70
2024/03/16 19:12:24;;;;;;;2.97;2.40;;;;;;;5.20;100.00;99020.94;6105744;19;20447;-70
2024/03/16 19:14:24;;;;;;;3.05;2.10;;;;;;;5.13;100.00;99031.63;6100641;19;20010;-70
2024/03/16 19:16:24;;;;;;;3.38;2.75;;;;;;;5.07;100.00;99019.22;6100907;19;20471;-70
2024/03/16 19:18:25;;;;;;;7.60;4.22;;;;;;;4.99;100.00;99017.31;6103018;19;20038;-70
2024/03/16 19:20:25;;;;;;;8.52;5.13;;;;;;;4.89;100.00;99026.69;6106065;19;20021;-70
2024/03/16 19:22:26;;;;;;;15.02;7.88;;;;;;;4.89;100.00;99025.91;6102120;19;20142;-70
2024/03/16 19:24:27;;;;;;;14.65;9.75;;;;;;;4.84;100.00;99029.59;6102797;19;20473;-70
2024/03/16 19:26:28;;;;;;;7.00;4.53;;;;;;;4.78;100.00;99033.66;6107277;19;20027;-70
2024/03/16 19:28:29;;;;;;;8.35;4.53;;;;;;;4.73;100.00;99040.13;6105448;19;20006;-70
2024/03/16 19:30:29;;;;;;;10.35;5.90;;;;;;;4.64;100.00;99042.06;6109280;19;20074;-70
2024/03/16 19:32:30;;;;;;;6.15;4.70;;;;;;;4.63;100.00;99043.19;6101484;19;20033;-70
2024/03/16 19:34:31;;;;;;;9.40;5.43;;;;;;;4.58;100.00;99042.56;6103755;19;20026;-70
2024/03/16 19:36:31;;;;;;;7.07;4.30;;;;;;;4.54;100.00;99049.81;6106496;19;20011;-70
2024/03/16 19:38:31;;;;;;;7.97;4.53;;;;;;;4.49;100.00;99051.59;6108958;19;20028;-70